Aérodrome :
LOGIN :

S'inscrire | Disclaimer

   EN    FR    IT 

 










Légende :    VFR   VFR Marginal   IFR   IFR Intensif   IFR Très Intensif
Visi : 
Plafond : 
>= 8 km
>= 3000ft
5 à 8 km
1000 à 3000 ft
1500m à 5 km
500 à 1000 ft
800 à 1500m
200 à 500 ft
< 800m
< 200 ft
Symboles :   Orages  Brouillard  Fortes neiges  Fortes précipitations  Vent > 20 kt
SIGMETs :   Divers  Orages  Givrage  Turbulence  Onde Orograph.  Cendres Volcan.






- Altitude de l'aérodrome : 362 ft
- Code IATA : WAW


EPWA - Warsaw Okecie

DERNIER METAR :
  • 270330Z 31005KT CAVOK 08/08 Q1030 NOSIG

METARs EXPIRÉS :
  • 270300Z 31006KT CAVOK 08/08 Q1030 NOSIG
  • 270230Z 30006KT CAVOK 08/08 Q1030 NOSIG
  • 270200Z 30005KT CAVOK 08/08 Q1030 NOSIG
  • 270130Z 30006KT CAVOK 08/07 Q1030 NOSIG
  • 270100Z 30004KT CAVOK 08/08 Q1030 NOSIG

TAF TAF EPWA
Valide du 27 à 03h jusqu'au 28 à 03h UTC


270230Z 2703/2803 33009KT CAVOK
PROB30
TEMPO 2712/2721 SCT040CB



MET'MAP, la Météo Aéronautique d'un coup d'oeil ! - Copyright ORBIFLY Décembre 2007 - Disclaimer

ORBIFLY MET'MAP TEAM :

Programmation & Développement : Alexandra Zaïnal
Sur une idée originale de : Baudouin d'Aumeries
Assistance à la programmation : Marc-Olivier Méhu
Soutien technique & logistique : Manuel Goepfert

Contact : metmap@orbifly.com




SOURCES & CREDITS :

   NOAA